Aérodrome :
LOGIN :

S'inscrire | Disclaimer

   EN    FR    IT 

 










Légende :    VFR   VFR Marginal   IFR   IFR Intensif   IFR Très Intensif
Visi : 
Plafond : 
>= 8 km
>= 3000ft
5 à 8 km
1000 à 3000 ft
1500m à 5 km
500 à 1000 ft
800 à 1500m
200 à 500 ft
< 800m
< 200 ft
Symboles :   Orages  Brouillard  Fortes neiges  Fortes précipitations  Vent > 20 kt
SIGMETs :   Divers  Orages  Givrage  Turbulence  Onde Orograph.  Cendres Volcan.






- Altitude de l'aérodrome : 288 ft
- Code IATA : BZZ


EGVN - RAF Brize Norton

DERNIER METAR :
  • 242120Z 25005KT 9999 BKN048 08/03 Q1005 NOSIG RMK BLU BLU

METARs EXPIRÉS :
  • 242050Z 27004KT 9999 BKN048 08/02 Q1005 NOSIG RMK BLU NLU
  • 242020Z 29008KT 9999 BKN041 08/02 Q1005 NOSIG RMK BLU BLU
  • 241950Z 29010KT 9999 FEW015 BKN041 09/03 Q1005 NOSIG RMK BLU BLU
  • 241850Z 25009KT 9999 FEW014 SCT023 BKN038 09/07 Q1004 BECMG FEW023 BKN038

TAF TAF EGVN
Valide du 24 à 21h jusqu'au 25 à 21h UTC


241933Z 2421/2521 27012KT 9999 BKN025
PROB30
TEMPO 2505/2510 SCT012
TEMPO 2510/2518 26015G25KT 7000 -SHRA SCT020CB
PROB40
TEMPO 2515/2521 3500 SHRASN SCT010 BKN020
PROB30
TEMPO 2515/2519 +SHGS SCT006 BKN010CB



MET'MAP, la Météo Aéronautique d'un coup d'oeil ! - Copyright ORBIFLY Décembre 2007 - Disclaimer

ORBIFLY MET'MAP TEAM :

Programmation & Développement : Alexandra Zaïnal
Sur une idée originale de : Baudouin d'Aumeries
Assistance à la programmation : Marc-Olivier Méhu
Soutien technique & logistique : Manuel Goepfert

Contact : metmap@orbifly.com




SOURCES & CREDITS :

   NOAA